createdAt,value
2023-04-08T00:02:13.899Z,11.10
2023-04-08T00:04:43.959Z,11.20
2023-04-08T00:07:14.377Z,12.00
2023-04-08T00:09:43.268Z,11.10
2023-04-08T00:12:12.369Z,11.40
2023-04-08T00:14:41.975Z,11.60
2023-04-08T00:17:10.618Z,9.60
2023-04-08T00:19:39.258Z,9.50
2023-04-08T00:22:10.087Z,10.00
2023-04-08T00:24:40.843Z,10.40
2023-04-08T00:27:13.811Z,11.00
2023-04-08T00:29:43.013Z,11.60
2023-04-08T00:32:12.106Z,12.00
2023-04-08T00:34:40.495Z,11.00
2023-04-08T00:37:09.313Z,11.10
2023-04-08T00:39:38.096Z,12.20
2023-04-08T00:42:06.965Z,11.80
2023-04-08T00:44:35.649Z,12.00
2023-04-08T00:47:04.665Z,10.90
2023-04-08T00:49:33.231Z,10.70
2023-04-08T00:52:02.020Z,10.40
2023-04-08T00:54:32.070Z,11.40
2023-04-08T00:57:01.564Z,11.00
2023-04-08T00:59:30.035Z,11.00
2023-04-08T01:02:23.643Z,11.50
2023-04-08T01:05:07.854Z,11.10
2023-04-08T01:07:38.183Z,11.70
2023-04-08T01:10:14.244Z,12.20
2023-04-08T01:12:45.112Z,11.70
2023-04-08T01:15:13.464Z,12.60
2023-04-08T01:17:42.434Z,11.00
2023-04-08T01:20:11.354Z,10.50
2023-04-08T01:23:02.167Z,11.30
2023-04-08T01:25:32.631Z,12.00
2023-04-08T01:28:02.300Z,12.20
2023-04-08T01:33:00.065Z,11.70
2023-04-08T01:35:28.848Z,12.30
2023-04-08T01:37:59.780Z,12.20
2023-04-08T01:40:28.307Z,12.10
2023-04-08T01:42:57.615Z,11.50
2023-04-08T01:45:25.993Z,11.00
2023-04-08T01:47:54.693Z,11.50
2023-04-08T01:50:23.984Z,11.80
2023-04-08T01:52:55.541Z,11.80
2023-04-08T01:55:23.921Z,11.30
2023-04-08T01:57:53.029Z,11.40
2023-04-08T02:00:27.893Z,12.00
2023-04-08T02:02:57.264Z,12.10
2023-04-08T02:05:25.736Z,12.10
2023-04-08T02:07:54.237Z,11.00
2023-04-08T02:10:23.359Z,10.30
2023-04-08T02:12:52.012Z,11.60
2023-04-08T02:15:20.698Z,11.50
2023-04-08T02:18:01.122Z,11.60
2023-04-08T02:20:41.524Z,12.20
2023-04-08T02:23:20.141Z,11.60
2023-04-08T02:25:48.830Z,12.40
2023-04-08T02:28:18.754Z,12.60
2023-04-08T02:30:49.542Z,11.20
2023-04-08T02:33:22.292Z,11.30
2023-04-08T02:35:55.045Z,11.50
2023-04-08T02:38:30.160Z,12.00
2023-04-08T02:40:59.185Z,11.40
2023-04-08T02:43:32.892Z,11.90
2023-04-08T02:46:10.641Z,12.40
2023-04-08T02:48:40.320Z,11.90
2023-04-08T02:51:08.789Z,12.90
2023-04-08T02:53:39.628Z,10.50
2023-04-08T02:56:11.890Z,10.70
2023-04-08T02:58:40.583Z,11.20
2023-04-08T03:01:09.239Z,11.40
2023-04-08T03:03:40.065Z,11.90
2023-04-08T03:06:08.696Z,11.70
2023-04-08T03:08:37.186Z,11.40
2023-04-08T03:11:06.481Z,11.40
2023-04-08T03:13:35.890Z,10.20
2023-04-08T03:16:04.575Z,9.70
2023-04-08T03:18:33.983Z,11.00
2023-04-08T03:21:03.678Z,12.50
2023-04-08T03:23:34.020Z,11.60
2023-04-08T03:26:02.294Z,12.30
2023-04-08T03:28:30.853Z,12.60
2023-04-08T03:31:01.115Z,11.00
2023-04-08T03:33:31.127Z,11.00
2023-04-08T03:35:59.523Z,10.90
2023-04-08T03:38:28.197Z,10.60
2023-04-08T03:40:56.681Z,11.50
2023-04-08T03:43:27.949Z,11.70
2023-04-08T03:45:56.978Z,13.60
2023-04-08T03:48:25.406Z,11.20
2023-04-08T03:50:54.200Z,10.10
2023-04-08T03:53:24.126Z,10.90
2023-04-08T03:55:53.314Z,11.20
2023-04-08T03:58:21.797Z,11.30
2023-04-08T04:00:50.793Z,11.90
2023-04-08T04:03:20.094Z,11.70
2023-04-08T04:05:54.009Z,10.60
2023-04-08T04:08:22.798Z,11.10
2023-04-08T04:10:51.897Z,10.90
2023-04-08T04:13:20.689Z,11.90
2023-04-08T04:15:49.513Z,12.50
2023-04-08T04:18:19.343Z,13.60
2023-04-08T04:20:47.779Z,10.90
2023-04-08T04:23:16.670Z,10.40
2023-04-08T04:25:45.573Z,12.30
2023-04-08T04:28:17.728Z,12.20
2023-04-08T04:30:48.581Z,12.30
2023-04-08T04:33:17.362Z,12.90
2023-04-08T04:35:48.322Z,10.70
2023-04-08T04:38:16.683Z,10.20
2023-04-08T04:40:48.032Z,12.00
2023-04-08T04:43:17.552Z,12.20
2023-04-08T04:45:47.577Z,12.90
2023-04-08T04:48:16.775Z,8.70
2023-04-08T04:50:45.961Z,9.70
2023-04-08T04:53:19.051Z,11.40
2023-04-08T04:58:18.399Z,11.80
2023-04-08T05:00:47.169Z,12.10
2023-04-08T05:05:53.190Z,10.90
2023-04-08T05:08:22.939Z,11.20
2023-04-08T05:10:51.759Z,11.60
2023-04-08T05:13:28.690Z,23.60
2023-04-08T05:16:02.142Z,21.60
2023-04-08T05:18:31.238Z,14.50
2023-04-08T05:21:05.261Z,14.80
2023-04-08T05:23:35.380Z,14.20
2023-04-08T05:26:03.797Z,15.40
2023-04-08T05:28:43.504Z,18.20
2023-04-08T05:31:12.240Z,14.70
2023-04-08T05:33:41.091Z,11.20
2023-04-08T05:36:11.454Z,11.50
2023-04-08T05:38:40.815Z,11.50
2023-04-08T05:41:10.962Z,11.60
2023-04-08T05:43:39.332Z,13.10
2023-04-08T05:46:08.424Z,12.80
2023-04-08T05:48:37.318Z,10.80
2023-04-08T05:51:07.029Z,10.00
2023-04-08T05:53:37.252Z,10.80
2023-04-08T05:56:05.832Z,10.60
2023-04-08T05:58:35.540Z,10.20
2023-04-08T06:01:04.149Z,10.50
2023-04-08T06:03:33.738Z,9.90
2023-04-08T06:06:02.838Z,11.00
2023-04-08T06:08:31.316Z,10.20
2023-04-08T06:11:04.415Z,12.00
2023-04-08T06:13:38.324Z,11.30
2023-04-08T06:16:14.207Z,9.50
2023-04-08T06:18:47.855Z,10.50
2023-04-08T06:21:17.843Z,10.00
2023-04-08T06:23:46.175Z,10.60
2023-04-08T06:26:14.967Z,10.50
2023-04-08T06:28:43.449Z,10.70
2023-04-08T06:31:14.496Z,9.40
2023-04-08T06:33:43.699Z,9.40
2023-04-08T06:36:13.614Z,9.50
2023-04-08T06:38:42.417Z,9.70
2023-04-08T06:41:11.197Z,10.10
2023-04-08T06:43:39.595Z,9.00
2023-04-08T06:46:08.009Z,9.20
2023-04-08T06:48:38.016Z,9.60
2023-04-08T06:51:08.138Z,10.40
2023-04-08T06:53:37.405Z,10.20
2023-04-08T06:56:05.791Z,9.80
2023-04-08T06:58:36.210Z,9.40
2023-04-08T07:01:05.367Z,9.40
2023-04-08T07:03:34.420Z,9.90
2023-04-08T07:06:04.631Z,10.30
2023-04-08T07:08:33.118Z,11.10
2023-04-08T07:11:05.928Z,10.20
2023-04-08T07:13:34.486Z,10.70
2023-04-08T07:16:02.875Z,10.90
2023-04-08T07:18:34.112Z,11.50
2023-04-08T07:21:02.704Z,10.70
2023-04-08T07:23:33.039Z,10.50
2023-04-08T07:26:07.245Z,11.00
2023-04-08T07:28:35.829Z,11.10
2023-04-08T07:31:11.460Z,11.20
2023-04-08T07:33:39.962Z,11.30
2023-04-08T07:36:12.134Z,10.40
2023-04-08T07:38:41.232Z,10.20
2023-04-08T07:41:12.169Z,10.70
2023-04-08T07:43:41.167Z,10.50
2023-04-08T07:46:10.033Z,10.80
2023-04-08T07:48:38.979Z,11.20
2023-04-08T07:51:11.073Z,9.40
2023-04-08T07:53:43.391Z,9.80
2023-04-08T07:56:13.111Z,10.30
2023-04-08T07:58:42.127Z,11.50
2023-04-08T08:01:22.201Z,10.90
2023-04-08T08:03:53.281Z,9.60
2023-04-08T08:06:22.489Z,10.30
2023-04-08T08:08:53.228Z,10.60
2023-04-08T08:11:22.835Z,10.10
2023-04-08T08:13:53.883Z,10.10
2023-04-08T08:16:28.967Z,10.10
2023-04-08T08:18:58.366Z,7.80
2023-04-08T08:21:33.766Z,8.70
2023-04-08T08:24:02.154Z,9.10
2023-04-08T08:26:31.549Z,9.00
2023-04-08T08:29:02.494Z,9.50
2023-04-08T08:31:31.539Z,9.90
2023-04-08T08:34:00.172Z,9.40
2023-04-08T08:36:29.246Z,9.00
2023-04-08T08:38:57.580Z,9.30
2023-04-08T08:41:25.926Z,8.60
2023-04-08T08:43:54.629Z,8.20
2023-04-08T08:46:23.006Z,8.70
2023-04-08T08:48:51.789Z,9.70
2023-04-08T08:51:20.270Z,9.50
2023-04-08T08:53:51.168Z,9.20
2023-04-08T08:56:20.316Z,9.00
2023-04-08T08:58:49.403Z,8.60
2023-04-08T09:01:50.529Z,9.70
2023-04-08T09:04:22.743Z,9.30
2023-04-08T09:07:11.241Z,10.30
2023-04-08T09:09:52.263Z,8.90
2023-04-08T09:12:21.056Z,8.60
2023-04-08T09:17:39.821Z,8.70
2023-04-08T09:20:15.416Z,9.20
2023-04-08T09:23:00.439Z,9.60
2023-04-08T09:25:32.244Z,10.40
2023-04-08T09:28:03.122Z,10.60
2023-04-08T09:30:32.675Z,9.90
2023-04-08T09:33:07.649Z,9.60
2023-04-08T09:35:36.823Z,9.40
2023-04-08T09:38:05.573Z,9.10
2023-04-08T09:40:36.850Z,8.70
2023-04-08T09:43:06.251Z,9.60
2023-04-08T09:45:34.722Z,7.80
2023-04-08T09:48:07.409Z,9.30
2023-04-08T09:50:39.354Z,8.10
2023-04-08T09:53:20.968Z,7.50
2023-04-08T09:55:52.115Z,8.90
2023-04-08T09:58:27.745Z,8.80
2023-04-08T10:00:58.609Z,8.50
2023-04-08T10:03:33.185Z,8.00
2023-04-08T10:06:06.715Z,7.80
2023-04-08T10:11:04.058Z,8.80
2023-04-08T10:13:35.644Z,8.60
2023-04-08T10:16:26.425Z,8.50
2023-04-08T10:18:58.378Z,8.70
2023-04-08T10:21:35.605Z,7.60
2023-04-08T10:24:07.397Z,6.90
2023-04-08T10:26:37.494Z,7.80
2023-04-08T10:29:18.898Z,7.40
2023-04-08T10:31:48.534Z,8.10
2023-04-08T10:34:23.067Z,7.40
2023-04-08T10:36:51.700Z,6.90
2023-04-08T10:39:21.721Z,7.00
2023-04-08T10:41:51.042Z,7.40
2023-04-08T10:44:20.569Z,7.80
2023-04-08T10:46:50.558Z,6.80
2023-04-08T10:49:19.236Z,6.90
2023-04-08T10:51:49.069Z,7.10
2023-04-08T10:54:18.459Z,6.90
2023-04-08T10:56:49.643Z,7.40
2023-04-08T10:59:32.261Z,6.80
2023-04-08T11:02:01.786Z,7.60
2023-04-08T11:04:31.117Z,6.60
2023-04-08T11:06:59.949Z,7.20
2023-04-08T11:09:28.512Z,7.70
2023-04-08T11:11:56.891Z,7.20
2023-04-08T11:14:28.352Z,7.00
2023-04-08T11:16:57.037Z,6.30
2023-04-08T11:19:25.424Z,6.40
2023-04-08T11:21:54.109Z,7.10
2023-04-08T11:24:22.800Z,6.60
2023-04-08T11:26:55.690Z,7.40
2023-04-08T11:29:24.190Z,6.70
2023-04-08T11:31:54.292Z,6.90
2023-04-08T11:34:24.535Z,9.30
2023-04-08T11:39:25.066Z,9.20
2023-04-08T11:41:53.654Z,9.70
2023-04-08T11:44:31.244Z,10.90
2023-04-08T11:47:02.500Z,11.50
2023-04-08T11:49:44.818Z,11.50
2023-04-08T11:52:13.932Z,12.00
2023-04-08T11:54:42.915Z,12.00
2023-04-08T11:57:11.797Z,13.30
2023-04-08T11:59:40.690Z,13.60
2023-04-08T12:02:09.402Z,12.30
2023-04-08T12:04:38.218Z,11.10
2023-04-08T12:07:06.656Z,11.70
2023-04-08T12:12:14.170Z,13.30
2023-04-08T12:14:44.288Z,10.20
2023-04-08T12:17:13.122Z,10.70
2023-04-08T12:19:47.706Z,11.10
2023-04-08T12:22:17.112Z,11.90
2023-04-08T12:24:45.697Z,11.70
2023-04-08T12:27:14.181Z,12.00
2023-04-08T12:29:43.898Z,13.70
2023-04-08T12:32:12.694Z,10.90
2023-04-08T12:34:41.686Z,12.90
2023-04-08T12:37:10.892Z,12.50
2023-04-08T12:39:40.967Z,13.10
2023-04-08T12:42:09.502Z,10.10
2023-04-08T12:44:37.916Z,12.30
2023-04-08T12:47:06.583Z,10.60
2023-04-08T12:49:48.659Z,8.40
2023-04-08T12:52:22.505Z,7.70
2023-04-08T12:54:52.081Z,8.10
2023-04-08T12:57:20.464Z,7.10
2023-04-08T12:59:49.174Z,8.50
2023-04-08T13:02:17.982Z,7.40
2023-04-08T13:04:46.425Z,6.70
2023-04-08T13:07:15.113Z,5.00
2023-04-08T13:09:45.774Z,5.50
2023-04-08T13:12:19.053Z,5.90
2023-04-08T13:14:47.934Z,6.30
2023-04-08T13:17:16.726Z,7.70
2023-04-08T13:19:45.309Z,7.90
2023-04-08T13:22:14.508Z,7.90
2023-04-08T13:24:48.040Z,7.60
2023-04-08T13:27:16.392Z,6.70
2023-04-08T13:29:48.571Z,6.70
2023-04-08T13:32:17.192Z,5.80
2023-04-08T13:34:45.633Z,5.40
2023-04-08T13:37:14.222Z,5.50
2023-04-08T13:39:42.801Z,7.10
2023-04-08T13:42:11.179Z,7.50
2023-04-08T13:44:39.761Z,7.20
2023-04-08T13:47:08.250Z,6.30
2023-04-08T13:49:37.163Z,6.10
2023-04-08T13:52:05.618Z,5.90
2023-04-08T13:54:36.558Z,6.10
2023-04-08T13:57:05.676Z,6.80
2023-04-08T13:59:34.450Z,5.70
2023-04-08T14:02:04.113Z,4.30
2023-04-08T14:04:33.889Z,5.00
2023-04-08T14:07:02.867Z,4.50
2023-04-08T14:09:31.653Z,4.70
2023-04-08T14:12:00.034Z,4.40
2023-04-08T14:14:28.519Z,4.00
2023-04-08T14:17:01.049Z,4.30
2023-04-08T14:19:29.581Z,5.00
2023-04-08T14:22:03.606Z,4.60
2023-04-08T14:24:32.600Z,4.70
2023-04-08T14:27:01.083Z,4.70
2023-04-08T14:29:31.091Z,4.70
2023-04-08T14:31:59.781Z,5.30
2023-04-08T14:34:28.364Z,4.60
2023-04-08T14:36:56.953Z,5.10
2023-04-08T14:39:25.637Z,5.00
2023-04-08T14:41:57.609Z,5.80
2023-04-08T14:44:26.395Z,5.30
2023-04-08T14:46:57.469Z,5.10
2023-04-08T14:49:26.020Z,3.20
2023-04-08T14:51:54.409Z,3.60
2023-04-08T14:54:23.304Z,4.30
2023-04-08T14:56:51.987Z,4.20
2023-04-08T14:59:21.803Z,3.90
2023-04-08T15:01:50.332Z,3.70
2023-04-08T15:04:18.921Z,4.70
2023-04-08T15:06:47.462Z,4.60
2023-04-08T15:09:16.866Z,4.30
2023-04-08T15:11:45.171Z,4.00
2023-04-08T15:14:15.682Z,4.80
2023-04-08T15:16:44.166Z,5.10
2023-04-08T15:19:12.852Z,5.10
2023-04-08T15:21:42.166Z,5.40
2023-04-08T15:24:10.758Z,7.70
2023-04-08T15:26:40.349Z,8.60
2023-04-08T15:29:08.842Z,10.50
2023-04-08T15:31:37.436Z,9.30
2023-04-08T15:34:05.906Z,7.50
2023-04-08T15:36:37.742Z,7.60
2023-04-08T15:39:06.863Z,6.70
2023-04-08T15:41:36.583Z,7.30
2023-04-08T15:44:05.062Z,7.30
2023-04-08T15:46:34.971Z,6.00
2023-04-08T15:49:04.905Z,5.40
2023-04-08T15:51:34.426Z,4.90
2023-04-08T15:54:03.409Z,5.00
2023-04-08T15:56:31.893Z,4.70
2023-04-08T15:59:01.095Z,4.70
2023-04-08T16:01:29.842Z,5.10
2023-04-08T16:06:28.090Z,4.70
2023-04-08T16:08:57.097Z,4.60
2023-04-08T16:11:27.911Z,4.50
2023-04-08T16:13:56.230Z,4.50
2023-04-08T16:16:25.022Z,5.60
2023-04-08T16:18:53.992Z,12.10
2023-04-08T16:21:22.582Z,25.00
2023-04-08T16:23:52.158Z,14.10
2023-04-08T16:28:52.473Z,7.50
2023-04-08T16:31:21.143Z,6.70
2023-04-08T16:33:49.814Z,7.00
2023-04-08T16:36:19.405Z,9.10
2023-04-08T16:38:47.899Z,11.90
2023-04-08T16:41:16.177Z,12.20
2023-04-08T16:43:44.660Z,8.90
2023-04-08T16:46:15.535Z,6.80
2023-04-08T16:48:45.228Z,9.60
2023-04-08T16:51:13.697Z,9.30
2023-04-08T16:53:42.899Z,7.50
2023-04-08T16:56:15.062Z,6.40
2023-04-08T16:58:43.863Z,7.30
2023-04-08T17:03:48.170Z,7.50
2023-04-08T17:06:18.128Z,8.20
2023-04-08T17:08:49.404Z,7.90
2023-04-08T17:11:18.392Z,7.70
2023-04-08T17:13:47.262Z,7.40
2023-04-08T17:16:17.842Z,8.80
2023-04-08T17:18:47.104Z,7.60
2023-04-08T17:21:15.886Z,8.70
2023-04-08T17:23:52.572Z,8.70
2023-04-08T17:26:26.580Z,10.30
2023-04-08T17:31:24.104Z,14.40
2023-04-08T17:33:53.161Z,15.80
2023-04-08T17:36:21.565Z,12.00
2023-04-08T17:38:51.163Z,10.20
2023-04-08T17:41:38.314Z,10.30
2023-04-08T17:44:11.979Z,10.20
2023-04-08T17:49:15.091Z,9.80
2023-04-08T17:51:44.194Z,8.70
2023-04-08T17:54:12.674Z,9.30
2023-04-08T17:56:46.663Z,8.80
2023-04-08T17:59:17.634Z,9.00
2023-04-08T18:01:48.271Z,9.50
2023-04-08T18:04:17.203Z,9.30
2023-04-08T18:06:45.846Z,9.00
2023-04-08T18:09:21.398Z,8.40
2023-04-08T18:11:52.031Z,7.20
2023-04-08T18:14:20.719Z,7.90
2023-04-08T18:16:53.892Z,8.00
2023-04-08T18:19:26.598Z,8.60
2023-04-08T18:21:55.798Z,8.90
2023-04-08T18:24:24.586Z,10.00
2023-04-08T18:27:03.466Z,10.60
2023-04-08T18:29:33.559Z,10.30
2023-04-08T18:32:02.344Z,32.60
2023-04-08T18:34:32.249Z,11.40
2023-04-08T18:37:04.317Z,9.10
2023-04-08T18:39:32.700Z,7.80
2023-04-08T18:42:01.802Z,5.80
2023-04-08T18:44:30.794Z,6.60
2023-04-08T18:46:59.495Z,6.80
2023-04-08T18:49:30.658Z,7.00
2023-04-08T18:52:03.189Z,7.00
2023-04-08T18:54:32.338Z,6.30
2023-04-08T18:57:03.146Z,7.20
2023-04-08T18:59:32.965Z,6.60
2023-04-08T19:02:01.807Z,7.40
2023-04-08T19:04:31.104Z,7.30
2023-04-08T19:07:00.672Z,12.70
2023-04-08T19:09:29.251Z,12.70
2023-04-08T19:11:57.842Z,9.30
2023-04-08T19:14:26.750Z,8.70
2023-04-08T19:16:57.067Z,6.60
2023-04-08T19:19:26.569Z,7.00
2023-04-08T19:21:55.464Z,6.90
2023-04-08T19:24:26.493Z,5.40
2023-04-08T19:26:54.850Z,5.90
2023-04-08T19:29:24.805Z,8.10
